createdAt,value
2022-11-16T00:00:20.896Z,17.31
2022-11-16T00:02:52.559Z,16.99
2022-11-16T00:05:28.015Z,17.33
2022-11-16T00:07:56.071Z,17.84
2022-11-16T00:10:23.659Z,17.53
2022-11-16T00:12:53.259Z,17.80
2022-11-16T00:15:23.951Z,16.87
2022-11-16T00:17:55.510Z,16.67
2022-11-16T00:20:24.196Z,16.75
2022-11-16T00:22:51.404Z,16.85
2022-11-16T00:25:21.225Z,16.69
2022-11-16T00:27:52.868Z,17.25
2022-11-16T00:30:23.704Z,16.85
2022-11-16T00:32:53.809Z,16.24
2022-11-16T00:35:24.047Z,16.85
2022-11-16T00:37:52.584Z,17.59
2022-11-16T00:40:20.344Z,17.69
2022-11-16T00:42:47.968Z,17.80
2022-11-16T00:45:18.184Z,17.47
2022-11-16T00:47:45.491Z,17.28
2022-11-16T00:50:15.973Z,17.87
2022-11-16T00:52:46.680Z,17.23
2022-11-16T00:55:14.338Z,17.20
2022-11-16T00:57:41.758Z,16.84
2022-11-16T01:00:16.202Z,17.12
2022-11-16T01:02:43.753Z,16.88
2022-11-16T01:05:13.358Z,17.03
2022-11-16T01:07:45.667Z,17.03
2022-11-16T01:10:18.208Z,17.08
2022-11-16T01:12:52.375Z,17.69
2022-11-16T01:15:26.608Z,17.12
2022-11-16T01:17:57.170Z,17.50
2022-11-16T01:20:29.174Z,17.08
2022-11-16T01:22:57.405Z,16.99
2022-11-16T01:25:27.746Z,17.30
2022-11-16T01:27:56.170Z,16.75
2022-11-16T01:30:23.712Z,16.73
2022-11-16T01:33:00.988Z,17.12
2022-11-16T01:35:28.271Z,17.60
2022-11-16T01:37:55.611Z,16.86
2022-11-16T01:40:24.905Z,16.55
2022-11-16T01:43:02.680Z,17.11
2022-11-16T01:45:43.054Z,16.85
2022-11-16T01:48:18.720Z,17.42
2022-11-16T01:50:50.339Z,17.92
2022-11-16T01:53:20.742Z,17.53
2022-11-16T01:55:51.085Z,16.83
2022-11-16T01:58:28.072Z,16.78
2022-11-16T02:00:59.245Z,16.59
2022-11-16T02:03:30.675Z,17.05
2022-11-16T02:06:12.894Z,17.83
2022-11-16T02:08:47.377Z,17.48
2022-11-16T02:11:28.223Z,17.61
2022-11-16T02:14:13.233Z,17.59
2022-11-16T02:16:54.712Z,17.60
2022-11-16T02:19:37.246Z,18.05
2022-11-16T02:22:23.409Z,17.62
2022-11-16T02:25:08.088Z,17.69
2022-11-16T02:27:49.093Z,17.67
2022-11-16T02:30:19.647Z,17.46
2022-11-16T02:33:01.230Z,18.02
2022-11-16T02:35:49.087Z,18.32
2022-11-16T02:38:29.041Z,18.19
2022-11-16T02:41:06.953Z,17.67
2022-11-16T02:43:43.286Z,18.01
2022-11-16T02:46:22.053Z,18.05
2022-11-16T02:48:55.401Z,18.45
2022-11-16T02:51:27.873Z,17.11
2022-11-16T02:54:03.190Z,17.87
2022-11-16T02:56:31.017Z,16.91
2022-11-16T02:59:02.928Z,17.16
2022-11-16T03:01:50.142Z,17.83
2022-11-16T03:04:33.678Z,18.26
2022-11-16T03:07:07.865Z,18.29
2022-11-16T03:09:47.230Z,18.44
2022-11-16T03:12:28.320Z,17.97
2022-11-16T03:15:22.536Z,17.70
2022-11-16T03:17:54.807Z,18.70
2022-11-16T03:20:30.526Z,18.72
2022-11-16T03:23:10.974Z,18.67
2022-11-16T03:25:51.204Z,18.79
2022-11-16T03:28:32.968Z,17.95
2022-11-16T03:31:14.802Z,18.74
2022-11-16T03:33:57.268Z,19.10
2022-11-16T03:36:31.289Z,18.41
2022-11-16T03:39:10.687Z,19.10
2022-11-16T03:41:47.671Z,19.04
2022-11-16T03:44:20.528Z,18.08
2022-11-16T03:46:48.720Z,18.06
2022-11-16T03:49:16.160Z,17.64
2022-11-16T03:51:45.993Z,18.09
2022-11-16T03:54:13.461Z,18.19
2022-11-16T03:56:41.862Z,17.94
2022-11-16T03:59:18.084Z,17.55
2022-11-16T04:01:45.375Z,17.89
2022-11-16T04:04:24.630Z,17.68
2022-11-16T04:06:56.416Z,17.73
2022-11-16T04:09:26.854Z,17.56
2022-11-16T04:12:05.740Z,17.54
2022-11-16T04:14:39.336Z,17.41
2022-11-16T04:17:18.417Z,17.90
2022-11-16T04:19:55.305Z,18.30
2022-11-16T04:22:48.858Z,18.58
2022-11-16T04:25:25.638Z,16.69
2022-11-16T04:27:58.465Z,17.69
2022-11-16T04:30:48.683Z,18.44
2022-11-16T04:33:28.182Z,18.26
2022-11-16T04:36:02.149Z,17.77
2022-11-16T04:38:34.778Z,18.37
2022-11-16T04:41:04.983Z,18.33
2022-11-16T04:43:33.518Z,17.99
2022-11-16T04:46:07.149Z,18.01
2022-11-16T04:48:38.741Z,18.11
2022-11-16T04:51:17.909Z,18.43
2022-11-16T04:53:46.041Z,18.12
2022-11-16T04:56:18.573Z,18.43
2022-11-16T04:58:48.255Z,18.79
2022-11-16T05:01:18.339Z,17.82
2022-11-16T05:03:54.705Z,16.18
2022-11-16T05:06:24.259Z,18.28
2022-11-16T05:08:54.126Z,18.58
2022-11-16T05:11:24.884Z,19.01
2022-11-16T05:13:53.894Z,18.98
2022-11-16T05:16:21.401Z,19.24
2022-11-16T05:18:55.039Z,19.00
2022-11-16T05:21:31.301Z,18.88
2022-11-16T05:24:04.178Z,18.79
2022-11-16T05:26:31.590Z,18.87
2022-11-16T05:28:59.056Z,18.89
2022-11-16T05:31:28.894Z,18.43
2022-11-16T05:33:56.361Z,17.41
2022-11-16T05:36:25.258Z,17.84
2022-11-16T05:38:56.337Z,17.46
2022-11-16T05:41:28.230Z,18.83
2022-11-16T05:44:00.560Z,18.89
2022-11-16T05:46:37.614Z,18.99
2022-11-16T05:49:07.901Z,19.31
2022-11-16T05:51:39.130Z,19.07
2022-11-16T05:54:07.643Z,18.98
2022-11-16T05:56:35.967Z,18.09
2022-11-16T05:59:09.184Z,18.60
2022-11-16T06:01:41.079Z,18.09
2022-11-16T06:04:08.990Z,18.21
2022-11-16T06:06:36.502Z,17.92
2022-11-16T06:09:04.841Z,17.65
2022-11-16T06:11:43.946Z,18.15
2022-11-16T06:14:16.346Z,17.59
2022-11-16T06:16:43.748Z,17.60
2022-11-16T06:19:13.100Z,18.00
2022-11-16T06:21:40.642Z,18.20
2022-11-16T06:24:10.767Z,18.44
2022-11-16T06:26:47.257Z,18.23
2022-11-16T06:29:17.683Z,18.58
2022-11-16T06:31:50.045Z,18.62
2022-11-16T06:34:17.555Z,19.12
2022-11-16T06:36:47.350Z,19.26
2022-11-16T06:39:16.015Z,18.83
2022-11-16T06:41:45.046Z,18.90
2022-11-16T06:44:16.636Z,18.62
2022-11-16T06:46:47.609Z,18.34
2022-11-16T06:49:15.065Z,18.31
2022-11-16T06:51:42.520Z,17.98
2022-11-16T06:54:10.620Z,18.62
2022-11-16T06:56:46.248Z,18.37
2022-11-16T06:59:27.182Z,17.75
2022-11-16T07:01:59.010Z,18.05
2022-11-16T07:04:26.669Z,18.07
2022-11-16T07:07:00.690Z,18.26
2022-11-16T07:09:28.024Z,18.53
2022-11-16T07:11:57.727Z,19.30
2022-11-16T07:14:27.844Z,18.78
2022-11-16T07:16:59.746Z,17.38
2022-11-16T07:22:11.047Z,18.58
2022-11-16T07:24:43.722Z,19.05
2022-11-16T07:27:16.724Z,19.21
2022-11-16T07:29:45.786Z,18.93
2022-11-16T07:32:12.910Z,18.86
2022-11-16T07:34:40.371Z,17.04
2022-11-16T07:37:14.415Z,18.84
2022-11-16T07:39:44.060Z,18.93
2022-11-16T07:42:41.320Z,19.46
2022-11-16T07:45:10.119Z,16.11
2022-11-16T07:50:21.390Z,17.05
2022-11-16T07:52:50.910Z,16.62
2022-11-16T07:55:23.102Z,18.32
2022-11-16T07:57:53.278Z,19.29
2022-11-16T08:00:21.299Z,17.73
2022-11-16T08:02:50.834Z,19.33
2022-11-16T08:05:19.343Z,18.65
2022-11-16T08:07:46.443Z,19.01
2022-11-16T08:10:15.868Z,18.37
2022-11-16T08:12:49.292Z,20.01
2022-11-16T08:15:19.854Z,20.54
2022-11-16T08:17:57.822Z,20.88
2022-11-16T08:20:28.882Z,21.15
2022-11-16T08:23:03.280Z,21.37
2022-11-16T08:25:31.304Z,21.46
2022-11-16T08:27:58.815Z,21.24
2022-11-16T08:30:30.646Z,21.18
2022-11-16T08:33:03.628Z,18.82
2022-11-16T08:35:50.489Z,19.08
2022-11-16T08:38:26.597Z,19.93
2022-11-16T08:41:00.480Z,20.73
2022-11-16T08:43:29.674Z,21.26
2022-11-16T08:45:57.582Z,21.09
2022-11-16T08:48:24.813Z,20.34
2022-11-16T08:51:16.414Z,20.69
2022-11-16T08:53:54.852Z,19.26
2022-11-16T08:56:22.042Z,19.86
2022-11-16T08:58:53.766Z,20.99
2022-11-16T09:01:28.146Z,20.33
2022-11-16T09:03:59.977Z,18.08
2022-11-16T09:06:32.096Z,18.30
2022-11-16T09:09:01.110Z,18.31
2022-11-16T09:11:30.575Z,17.55
2022-11-16T09:14:04.741Z,18.39
2022-11-16T09:16:35.141Z,17.86
2022-11-16T09:19:03.235Z,16.74
2022-11-16T09:21:34.193Z,16.67
2022-11-16T09:24:07.051Z,16.39
2022-11-16T09:26:35.559Z,16.73
2022-11-16T09:29:04.543Z,16.58
2022-11-16T09:31:37.684Z,16.77
2022-11-16T09:34:08.837Z,16.90
2022-11-16T09:36:40.137Z,17.10
2022-11-16T09:42:24.006Z,17.88
2022-11-16T09:45:24.846Z,17.47
2022-11-16T09:48:03.221Z,17.69
2022-11-16T09:50:47.593Z,17.05
2022-11-16T09:53:58.548Z,16.71
2022-11-16T09:56:29.160Z,16.95
2022-11-16T09:59:12.235Z,16.95
2022-11-16T10:01:56.196Z,16.99
2022-11-16T10:04:37.203Z,16.94
2022-11-16T10:07:16.301Z,16.99
2022-11-16T10:09:56.010Z,16.97
2022-11-16T10:12:59.599Z,17.29
2022-11-16T10:16:13.723Z,17.19
2022-11-16T10:19:29.619Z,17.72
2022-11-16T10:25:07.801Z,18.26
2022-11-16T10:28:09.803Z,18.46
2022-11-16T10:31:15.824Z,18.07
2022-11-16T10:33:52.138Z,18.34
2022-11-16T10:36:27.876Z,17.64
2022-11-16T10:38:57.512Z,18.15
2022-11-16T10:41:51.643Z,17.86
2022-11-16T10:44:42.133Z,18.52
2022-11-16T10:47:33.904Z,18.22
2022-11-16T10:50:34.224Z,17.91
2022-11-16T10:53:08.182Z,17.44
2022-11-16T10:55:44.824Z,17.28
2022-11-16T10:58:12.434Z,17.72
2022-11-16T11:00:56.146Z,17.48
2022-11-16T11:03:36.403Z,17.49
2022-11-16T11:06:21.639Z,17.28
2022-11-16T11:08:53.803Z,17.62
2022-11-16T11:12:18.495Z,17.97
2022-11-16T11:15:24.285Z,18.95
2022-11-16T11:18:23.293Z,18.91
2022-11-16T11:21:17.431Z,18.55
2022-11-16T11:24:06.178Z,18.44
2022-11-16T11:26:53.633Z,17.89
2022-11-16T11:29:47.719Z,17.78
2022-11-16T11:32:24.372Z,17.99
2022-11-16T11:35:01.715Z,17.57
2022-11-16T11:37:35.270Z,18.11
2022-11-16T11:40:20.606Z,17.73
2022-11-16T11:43:01.091Z,17.93
2022-11-16T11:45:55.073Z,17.67
2022-11-16T11:48:49.315Z,18.46
2022-11-16T11:51:36.209Z,18.62
2022-11-16T11:54:08.020Z,18.14
2022-11-16T11:56:42.856Z,17.70
2022-11-16T11:59:33.656Z,17.86
2022-11-16T12:02:31.771Z,18.03
2022-11-16T12:05:26.438Z,17.94
2022-11-16T12:08:23.280Z,18.00
2022-11-16T12:11:15.413Z,18.05
2022-11-16T12:14:30.222Z,18.00
2022-11-16T12:17:36.556Z,17.44
2022-11-16T12:20:43.226Z,17.41
2022-11-16T12:23:49.570Z,17.50
2022-11-16T12:27:19.123Z,17.56
2022-11-16T12:30:34.370Z,17.81
2022-11-16T12:33:45.457Z,17.44
2022-11-16T12:36:50.706Z,17.33
2022-11-16T12:39:42.825Z,17.15
2022-11-16T12:42:47.510Z,17.50
2022-11-16T12:45:54.959Z,17.55
2022-11-16T12:49:10.308Z,17.35
2022-11-16T12:51:57.778Z,17.46
2022-11-16T12:55:25.552Z,17.27
2022-11-16T12:59:08.018Z,17.26
2022-11-16T13:02:13.080Z,17.48
2022-11-16T13:04:48.891Z,17.24
2022-11-16T13:07:40.815Z,17.22
2022-11-16T13:10:41.408Z,17.63
2022-11-16T13:13:49.693Z,17.65
2022-11-16T13:16:11.004Z,17.51
2022-11-16T13:18:43.001Z,17.63
2022-11-16T13:21:45.753Z,17.65
2022-11-16T13:24:47.308Z,17.86
2022-11-16T13:27:25.083Z,17.43
2022-11-16T13:30:23.742Z,17.69
2022-11-16T13:33:29.026Z,17.56
2022-11-16T13:35:56.878Z,17.68
2022-11-16T13:38:54.231Z,17.75
2022-11-16T13:41:41.631Z,17.37
2022-11-16T13:44:34.819Z,17.43
2022-11-16T13:47:18.516Z,17.34
2022-11-16T13:50:03.419Z,17.34
2022-11-16T13:53:46.112Z,17.75
2022-11-16T13:55:48.380Z,17.88
2022-11-16T13:58:23.627Z,17.51
2022-11-16T14:01:14.542Z,17.49
2022-11-16T14:03:54.436Z,18.52
2022-11-16T14:06:30.286Z,18.63
2022-11-16T14:09:02.081Z,18.10
2022-11-16T14:11:40.734Z,18.05
2022-11-16T14:15:03.798Z,17.56
2022-11-16T14:17:59.731Z,17.58
2022-11-16T14:20:58.590Z,17.61
2022-11-16T14:24:01.271Z,17.73
2022-11-16T14:26:52.603Z,17.72
2022-11-16T14:29:58.074Z,17.87
2022-11-16T14:32:47.963Z,17.87
2022-11-16T14:35:45.550Z,17.37
2022-11-16T14:38:55.005Z,17.34
2022-11-16T14:41:27.136Z,17.47
2022-11-16T14:43:58.334Z,17.79
2022-11-16T14:46:30.046Z,17.66
2022-11-16T14:49:01.205Z,17.47
2022-11-16T14:51:54.549Z,17.31
2022-11-16T14:55:01.440Z,17.51
2022-11-16T14:57:34.356Z,17.24
2022-11-16T15:00:24.909Z,17.58
2022-11-16T15:03:02.363Z,17.54
2022-11-16T15:05:35.835Z,17.44
2022-11-16T15:08:17.741Z,17.57
2022-11-16T15:10:52.334Z,17.35
2022-11-16T15:13:25.343Z,17.55
2022-11-16T15:16:16.991Z,17.53
2022-11-16T15:19:01.849Z,17.43
2022-11-16T15:21:30.091Z,17.80
2022-11-16T15:26:47.035Z,17.76
2022-11-16T15:29:24.505Z,18.14
2022-11-16T15:31:55.351Z,18.02
2022-11-16T15:34:22.578Z,18.14
2022-11-16T15:36:52.400Z,18.09
2022-11-16T15:39:24.839Z,17.55
2022-11-16T15:41:58.788Z,17.45
2022-11-16T15:44:44.313Z,17.44
2022-11-16T15:47:20.590Z,17.32
2022-11-16T15:49:53.136Z,17.42
2022-11-16T15:52:51.502Z,17.62
2022-11-16T15:55:34.317Z,17.29
2022-11-16T15:58:09.860Z,16.90
2022-11-16T16:00:38.108Z,16.83
2022-11-16T16:03:26.546Z,16.99
2022-11-16T16:05:57.517Z,17.11
2022-11-16T16:09:18.539Z,17.22
2022-11-16T16:11:46.012Z,17.68
2022-11-16T16:14:29.300Z,17.67
2022-11-16T16:17:03.965Z,18.20
2022-11-16T16:19:49.538Z,17.67
2022-11-16T16:22:33.145Z,18.24
2022-11-16T16:25:31.636Z,17.69
2022-11-16T16:28:07.112Z,17.33
2022-11-16T16:30:36.187Z,17.07
2022-11-16T16:33:06.409Z,17.11
2022-11-16T16:35:35.880Z,17.35
2022-11-16T16:38:03.642Z,17.65
2022-11-16T16:40:33.602Z,18.13
2022-11-16T16:43:10.820Z,19.35
2022-11-16T16:45:45.387Z,19.99
2022-11-16T16:48:18.336Z,20.03
2022-11-16T16:50:47.966Z,19.33
2022-11-16T16:53:15.680Z,20.51
2022-11-16T16:55:48.331Z,20.31
2022-11-16T16:58:17.349Z,20.73
2022-11-16T17:01:01.712Z,20.74
2022-11-16T17:03:31.917Z,20.43
2022-11-16T17:06:14.863Z,20.64
2022-11-16T17:08:45.740Z,20.03
2022-11-16T17:11:15.720Z,19.48
2022-11-16T17:13:42.896Z,18.85
2022-11-16T17:16:23.477Z,18.27
2022-11-16T17:18:56.225Z,18.04
2022-11-16T17:21:24.112Z,18.22
2022-11-16T17:23:53.946Z,17.25
2022-11-16T17:26:21.979Z,16.59
2022-11-16T17:28:49.194Z,16.64
2022-11-16T17:31:23.698Z,16.90
2022-11-16T17:34:13.796Z,16.92
2022-11-16T17:36:43.789Z,17.35
2022-11-16T17:39:16.827Z,17.71
2022-11-16T17:41:49.401Z,17.12
2022-11-16T17:44:21.626Z,16.85
2022-11-16T17:46:49.705Z,16.78
2022-11-16T17:49:20.154Z,17.03
2022-11-16T17:51:49.224Z,16.98
2022-11-16T17:54:20.376Z,17.10
2022-11-16T17:56:49.026Z,16.58
2022-11-16T17:59:19.262Z,17.18
2022-11-16T18:02:06.479Z,17.60
2022-11-16T18:04:37.323Z,17.67
2022-11-16T18:07:10.290Z,17.58
2022-11-16T18:09:40.558Z,17.67
2022-11-16T18:12:12.373Z,17.64
2022-11-16T18:15:06.423Z,17.74
2022-11-16T18:17:41.772Z,17.91
2022-11-16T18:20:14.047Z,17.86
2022-11-16T18:22:41.299Z,17.76
2022-11-16T18:25:16.433Z,18.09
2022-11-16T18:27:47.361Z,18.17
2022-11-16T18:30:15.084Z,17.99
2022-11-16T18:32:45.311Z,17.91
2022-11-16T18:35:13.043Z,18.31
2022-11-16T18:37:42.931Z,18.77
2022-11-16T18:40:12.579Z,18.51
2022-11-16T18:42:42.566Z,19.06
2022-11-16T18:45:15.684Z,19.46
2022-11-16T18:50:27.112Z,19.44
2022-11-16T18:53:01.967Z,19.42
2022-11-16T18:55:37.847Z,19.36
2022-11-16T18:58:22.849Z,19.40
2022-11-16T19:01:09.453Z,19.69
2022-11-16T19:03:37.914Z,19.84
2022-11-16T19:06:10.848Z,19.73
2022-11-16T19:08:41.958Z,19.83
2022-11-16T19:11:17.154Z,20.11
2022-11-16T19:13:45.533Z,20.38
2022-11-16T19:16:16.759Z,20.57
2022-11-16T19:18:49.133Z,20.94
2022-11-16T19:21:20.292Z,20.98
2022-11-16T19:23:51.277Z,19.24
2022-11-16T19:26:28.348Z,19.50
2022-11-16T19:29:00.939Z,19.39
2022-11-16T19:31:36.109Z,16.29
2022-11-16T19:34:10.636Z,18.67
2022-11-16T19:36:47.644Z,15.78
2022-11-16T19:39:21.278Z,16.70
2022-11-16T19:41:58.509Z,17.36
2022-11-16T19:44:31.808Z,18.70
2022-11-16T19:47:01.320Z,18.97
2022-11-16T19:49:29.029Z,19.34
2022-11-16T19:52:13.786Z,18.74
2022-11-16T19:54:46.181Z,18.33
2022-11-16T19:57:15.782Z,19.28
2022-11-16T19:59:43.181Z,18.15
2022-11-16T20:02:12.375Z,19.32
2022-11-16T20:04:46.573Z,19.13
2022-11-16T20:07:18.219Z,18.96
2022-11-16T20:09:53.380Z,19.65
2022-11-16T20:12:20.747Z,18.86
2022-11-16T20:14:55.675Z,18.87
2022-11-16T20:17:29.902Z,18.86
2022-11-16T20:20:02.591Z,18.44
2022-11-16T20:22:30.306Z,18.68
2022-11-16T20:24:57.603Z,18.73
2022-11-16T20:27:29.132Z,17.88
2022-11-16T20:29:56.441Z,18.29
2022-11-16T20:32:32.957Z,18.32
2022-11-16T20:35:07.851Z,18.02
2022-11-16T20:37:38.111Z,18.45
2022-11-16T20:40:10.150Z,18.41
2022-11-16T20:42:39.781Z,18.77
2022-11-16T20:45:10.100Z,18.11
2022-11-16T20:47:45.332Z,18.20
2022-11-16T20:50:13.539Z,17.76
2022-11-16T20:52:43.207Z,18.20
2022-11-16T20:55:14.689Z,17.42
2022-11-16T20:57:41.767Z,18.18
2022-11-16T21:00:12.287Z,18.00
2022-11-16T21:02:42.948Z,18.09
2022-11-16T21:05:11.347Z,17.61
2022-11-16T21:07:42.020Z,18.23
2022-11-16T21:10:24.158Z,17.94
2022-11-16T21:16:13.804Z,18.32
2022-11-16T21:18:41.950Z,17.85
2022-11-16T21:21:16.380Z,17.44
2022-11-16T21:23:52.841Z,18.39
2022-11-16T21:26:24.402Z,17.68
2022-11-16T21:28:55.389Z,18.33
2022-11-16T21:31:27.665Z,17.34
2022-11-16T21:34:03.703Z,17.56
2022-11-16T21:36:33.853Z,17.78
2022-11-16T21:39:05.640Z,17.37
2022-11-16T21:41:34.053Z,17.83
2022-11-16T21:44:02.642Z,17.29
2022-11-16T21:46:32.060Z,16.78
2022-11-16T21:49:00.370Z,17.81
2022-11-16T21:51:28.870Z,17.70
2022-11-16T21:54:00.929Z,17.22
2022-11-16T21:56:29.554Z,17.17
2022-11-16T21:58:56.818Z,16.35
2022-11-16T22:01:49.417Z,16.95
2022-11-16T22:04:38.214Z,16.84
2022-11-16T22:07:31.516Z,17.19
2022-11-16T22:10:08.726Z,16.02
2022-11-16T22:12:37.086Z,16.62
2022-11-16T22:15:26.732Z,16.69
2022-11-16T22:18:08.473Z,17.05
2022-11-16T22:20:36.088Z,16.30
2022-11-16T22:23:05.787Z,16.24
2022-11-16T22:25:37.630Z,16.60
2022-11-16T22:28:24.959Z,16.85
2022-11-16T22:31:07.854Z,16.99
2022-11-16T22:33:42.448Z,17.34
2022-11-16T22:36:18.450Z,16.65
2022-11-16T22:38:46.728Z,16.79
2022-11-16T22:41:17.030Z,16.33
2022-11-16T22:43:44.208Z,16.84
2022-11-16T22:46:16.808Z,16.78
2022-11-16T22:48:45.087Z,16.67
2022-11-16T22:51:30.443Z,16.54
2022-11-16T22:54:04.662Z,16.48
2022-11-16T22:56:34.056Z,17.25
2022-11-16T22:59:05.560Z,16.93
2022-11-16T23:01:36.470Z,16.85
2022-11-16T23:04:04.549Z,16.92
2022-11-16T23:06:31.827Z,16.32
2022-11-16T23:09:02.177Z,16.07
2022-11-16T23:11:55.753Z,15.85
2022-11-16T23:14:42.356Z,15.84
2022-11-16T23:17:14.296Z,15.50
2022-11-16T23:20:04.179Z,15.47
2022-11-16T23:22:49.917Z,15.38
2022-11-16T23:25:39.163Z,15.54
2022-11-16T23:28:19.300Z,15.68
2022-11-16T23:30:47.724Z,16.08
2022-11-16T23:33:16.983Z,16.02
2022-11-16T23:35:44.315Z,16.39
2022-11-16T23:38:14.019Z,16.58
2022-11-16T23:40:48.930Z,16.54
2022-11-16T23:43:35.246Z,16.84
2022-11-16T23:46:03.266Z,15.16
2022-11-16T23:48:34.267Z,13.33
2022-11-16T23:51:03.435Z,14.88
2022-11-16T23:53:35.399Z,14.35
2022-11-16T23:56:05.934Z,14.30
2022-11-16T23:58:33.709Z,13.88
